Time;durP1;ratioP1;P1;durP2;ratioP2;P2;SDS_P1;SDS_P2;PMS_P1;PMS_P2;Temp;Humidity;BMP_temperature;BMP_pressure;BME280_temperature;BME280_humidity;BME280_pressure;Samples;Min_cycle;Max_cycle;Signal;HPM_P1;HPM_P2
2023/12/30 00:00:25;;;;;;;0.10;0.00;;;;;;;;;;5023210;28;20045;-62
2023/12/30 00:02:51;;;;;;;0.00;0.00;;;;;;;;;;5021694;28;20061;-62
2023/12/30 00:05:18;;;;;;;0.00;0.00;;;;;;;;;;5027542;28;20026;-63
2023/12/30 00:07:44;;;;;;;0.00;0.00;;;;;;;;;;5025359;28;20124;-61
2023/12/30 00:10:10;;;;;;;0.00;0.00;;;;;;;;;;5026234;28;20052;-62
2023/12/30 00:12:36;;;;;;;5.18;0.20;;;;;;;;;;5026077;28;20460;-62
2023/12/30 00:15:03;;;;;;;0.00;0.00;;;;;;;;;;5023988;28;20327;-62
2023/12/30 00:17:29;;;;;;;0.00;0.00;;;;;;;;;;5018444;28;20245;-62
2023/12/30 00:19:55;;;;;;;0.00;0.00;;;;;;;;;;5020194;28;20490;-62
2023/12/30 00:22:21;;;;;;;0.93;0.35;;;;;;;;;;5031953;28;20036;-62
2023/12/30 00:24:47;;;;;;;0.13;0.13;;;;;;;;;;5025808;28;20037;-61
2023/12/30 00:27:13;;;;;;;0.00;0.00;;;;;;;;;;5022427;28;20138;-64
2023/12/30 00:29:40;;;;;;;0.10;0.10;;;;;;;;;;5026053;28;20046;-64
2023/12/30 00:32:06;;;;;;;1.85;0.10;;;;;;;;;;5028845;28;20551;-64
2023/12/30 00:34:33;;;;;;;7.88;0.70;;;;;;;;;;5027720;28;20449;-64
2023/12/30 00:36:59;;;;;;;1.42;1.15;;;;;;;;;;5033373;28;20029;-61
2023/12/30 00:39:25;;;;;;;4.47;2.08;;;;;;;;;;5029901;28;21475;-63
2023/12/30 00:41:51;;;;;;;0.75;0.63;;;;;;;;;;5029533;28;20087;-63
2023/12/30 00:44:17;;;;;;;0.38;0.38;;;;;;;;;;5016819;28;20272;-62
2023/12/30 00:46:43;;;;;;;1.35;0.93;;;;;;;;;;5030394;28;20469;-63
2023/12/30 00:49:11;;;;;;;0.10;0.10;;;;;;;;;;5029941;28;20040;-62
2023/12/30 00:51:37;;;;;;;1.25;0.55;;;;;;;;;;5021414;28;20069;-62
2023/12/30 00:54:03;;;;;;;0.00;0.00;;;;;;;;;;5014253;28;20128;-62
2023/12/30 00:56:29;;;;;;;0.00;0.00;;;;;;;;;;5025816;28;20048;-64
2023/12/30 00:58:55;;;;;;;2.17;0.45;;;;;;;;;;5021834;28;20029;-64
2023/12/30 01:01:21;;;;;;;0.00;0.00;;;;;;;;;;5020034;28;20045;-64
2023/12/30 01:03:47;;;;;;;0.00;0.00;;;;;;;;;;5024169;28;20252;-64
2023/12/30 01:06:13;;;;;;;0.00;0.00;;;;;;;;;;5032166;28;20179;-62
2023/12/30 01:08:39;;;;;;;0.00;0.00;;;;;;;;;;5021136;28;20358;-62
2023/12/30 01:11:05;;;;;;;0.10;0.10;;;;;;;;;;5023287;28;20037;-62
2023/12/30 01:13:31;;;;;;;0.00;0.00;;;;;;;;;;5025157;28;20305;-61
2023/12/30 01:15:57;;;;;;;2.60;1.15;;;;;;;;;;5020194;28;20041;-61
2023/12/30 01:18:24;;;;;;;1.45;1.35;;;;;;;;;;5028855;28;20521;-62
2023/12/30 01:20:50;;;;;;;0.17;0.10;;;;;;;;;;5020982;28;20251;-61
2023/12/30 01:23:16;;;;;;;4.07;0.52;;;;;;;;;;5021872;28;20519;-62
2023/12/30 01:25:42;;;;;;;0.00;0.00;;;;;;;;;;5021121;28;20086;-62
2023/12/30 01:28:09;;;;;;;0.10;0.10;;;;;;;;;;5023411;28;20041;-62
2023/12/30 01:30:38;;;;;;;0.00;0.00;;;;;;;;;;5019634;28;20129;-62
2023/12/30 01:33:04;;;;;;;0.00;0.00;;;;;;;;;;5024039;28;20096;-61
2023/12/30 01:35:30;;;;;;;0.00;0.00;;;;;;;;;;5022821;28;20462;-61
2023/12/30 01:37:57;;;;;;;0.00;0.00;;;;;;;;;;5023795;28;20041;-62
2023/12/30 01:40:23;;;;;;;0.00;0.00;;;;;;;;;;5019347;28;20528;-61
2023/12/30 01:42:48;;;;;;;0.00;0.00;;;;;;;;;;5021977;28;20079;-62
2023/12/30 01:45:14;;;;;;;0.00;0.00;;;;;;;;;;5022351;28;20120;-62
2023/12/30 01:47:40;;;;;;;0.15;0.15;;;;;;;;;;5030705;28;20045;-64
2023/12/30 01:50:07;;;;;;;0.22;0.22;;;;;;;;;;5028817;28;20103;-64
2023/12/30 01:52:34;;;;;;;0.20;0.10;;;;;;;;;;5025150;28;20165;-64
2023/12/30 01:55:00;;;;;;;0.00;0.00;;;;;;;;;;5026274;28;20041;-64
2023/12/30 01:57:26;;;;;;;0.00;0.00;;;;;;;;;;5024741;28;20036;-64
2023/12/30 01:59:52;;;;;;;0.00;0.00;;;;;;;;;;5022298;28;20053;-64
2023/12/30 02:02:21;;;;;;;0.15;0.15;;;;;;;;;;5027798;28;20657;-64
2023/12/30 02:04:47;;;;;;;0.30;0.30;;;;;;;;;;5028168;28;20404;-64
2023/12/30 02:07:13;;;;;;;3.20;0.90;;;;;;;;;;5021374;28;20065;-63
2023/12/30 02:09:39;;;;;;;0.70;0.55;;;;;;;;;;5028230;28;20480;-61
2023/12/30 02:12:05;;;;;;;0.32;0.20;;;;;;;;;;5023314;28;20156;-62
2023/12/30 02:14:31;;;;;;;0.28;0.20;;;;;;;;;;5019435;28;20056;-63
2023/12/30 02:16:57;;;;;;;0.00;0.00;;;;;;;;;;5027112;28;20039;-62
2023/12/30 02:19:24;;;;;;;1.50;0.77;;;;;;;;;;5024773;28;20021;-62
2023/12/30 02:21:50;;;;;;;0.32;0.13;;;;;;;;;;5028105;28;20296;-61
2023/12/30 02:24:16;;;;;;;0.10;0.10;;;;;;;;;;5030176;28;20520;-62
2023/12/30 02:26:42;;;;;;;0.00;0.00;;;;;;;;;;5032051;28;20493;-62
2023/12/30 02:29:08;;;;;;;1.58;0.40;;;;;;;;;;5025223;28;20033;-62
2023/12/30 02:31:39;;;;;;;0.57;0.00;;;;;;;;;;5026258;28;20037;-61
2023/12/30 02:34:05;;;;;;;0.10;0.10;;;;;;;;;;5016807;28;20106;-63
2023/12/30 02:36:31;;;;;;;0.00;0.00;;;;;;;;;;5021164;28;20069;-62
2023/12/30 02:38:57;;;;;;;0.00;0.00;;;;;;;;;;5029797;28;20040;-62
2023/12/30 02:41:24;;;;;;;0.65;0.52;;;;;;;;;;5021418;28;20038;-62
2023/12/30 02:43:56;;;;;;;0.00;0.00;;;;;;;;;;5031905;28;20547;-61
2023/12/30 02:46:22;;;;;;;3.97;0.50;;;;;;;;;;5029301;28;20046;-61
2023/12/30 02:48:48;;;;;;;0.05;0.05;;;;;;;;;;5028867;28;20421;-61
2023/12/30 02:51:17;;;;;;;0.00;0.00;;;;;;;;;;5028974;28;20132;-62
2023/12/30 02:53:43;;;;;;;0.22;0.20;;;;;;;;;;5028934;28;20127;-62
2023/12/30 02:56:22;;;;;;;0.13;0.13;;;;;;;;;;5024359;28;20037;-63
2023/12/30 02:58:53;;;;;;;0.00;0.00;;;;;;;;;;5021418;28;20040;-64
2023/12/30 03:01:19;;;;;;;0.00;0.00;;;;;;;;;;5023716;28;20049;-64
2023/12/30 03:03:45;;;;;;;0.30;0.30;;;;;;;;;;5020470;28;20041;-64
2023/12/30 03:06:14;;;;;;;0.00;0.00;;;;;;;;;;5026282;28;20053;-64
2023/12/30 03:08:40;;;;;;;3.70;0.10;;;;;;;;;;5032585;28;20067;-64
2023/12/30 03:11:08;;;;;;;0.15;0.15;;;;;;;;;;5025901;28;20177;-64
2023/12/30 03:13:34;;;;;;;1.00;1.00;;;;;;;;;;5023836;28;20442;-64
2023/12/30 03:16:00;;;;;;;0.00;0.00;;;;;;;;;;5023455;28;20033;-64
2023/12/30 03:18:26;;;;;;;0.00;0.00;;;;;;;;;;5024759;28;20040;-64
2023/12/30 03:20:52;;;;;;;0.00;0.00;;;;;;;;;;5027223;28;20030;-64
2023/12/30 03:23:18;;;;;;;0.00;0.00;;;;;;;;;;5029115;28;20033;-64
2023/12/30 03:25:44;;;;;;;0.00;0.00;;;;;;;;;;5022059;28;20037;-64
2023/12/30 03:28:10;;;;;;;0.10;0.10;;;;;;;;;;5026511;28;20029;-64
2023/12/30 03:30:36;;;;;;;0.00;0.00;;;;;;;;;;5031715;28;20389;-64
2023/12/30 03:33:02;;;;;;;0.00;0.00;;;;;;;;;;5020183;28;21465;-64
2023/12/30 03:35:28;;;;;;;0.10;0.10;;;;;;;;;;5024882;28;20171;-64
2023/12/30 03:37:54;;;;;;;0.10;0.10;;;;;;;;;;5024636;28;20082;-62
2023/12/30 03:40:20;;;;;;;0.00;0.00;;;;;;;;;;5025103;28;22798;-61
2023/12/30 03:42:46;;;;;;;0.00;0.00;;;;;;;;;;5028881;28;20266;-61
2023/12/30 03:45:12;;;;;;;0.20;0.15;;;;;;;;;;5025548;28;20033;-62
2023/12/30 03:47:38;;;;;;;0.00;0.00;;;;;;;;;;5029077;28;20059;-62
2023/12/30 03:50:04;;;;;;;0.80;0.57;;;;;;;;;;5022468;28;20424;-62
2023/12/30 03:52:30;;;;;;;0.00;0.00;;;;;;;;;;5026947;28;20037;-62
2023/12/30 03:54:56;;;;;;;0.20;0.20;;;;;;;;;;5026324;28;20033;-62
2023/12/30 03:57:22;;;;;;;0.05;0.05;;;;;;;;;;5021954;28;20488;-64
2023/12/30 03:59:49;;;;;;;1.05;0.25;;;;;;;;;;5024798;28;20033;-64
2023/12/30 04:02:18;;;;;;;0.00;0.00;;;;;;;;;;5025323;28;20178;-64
2023/12/30 04:04:44;;;;;;;0.00;0.00;;;;;;;;;;5021759;28;20034;-64
2023/12/30 04:07:10;;;;;;;0.00;0.00;;;;;;;;;;5022529;28;20040;-62
2023/12/30 04:09:35;;;;;;;0.00;0.00;;;;;;;;;;5029064;28;20033;-62
2023/12/30 04:12:01;;;;;;;0.15;0.10;;;;;;;;;;5031468;28;20041;-61
2023/12/30 04:14:27;;;;;;;0.00;0.00;;;;;;;;;;5027509;28;20393;-62
2023/12/30 04:16:53;;;;;;;0.00;0.00;;;;;;;;;;5024957;28;20037;-61
2023/12/30 04:19:19;;;;;;;2.78;0.32;;;;;;;;;;5016130;28;20121;-61
2023/12/30 04:21:45;;;;;;;0.00;0.00;;;;;;;;;;5029297;28;20033;-62
2023/12/30 04:24:11;;;;;;;0.20;0.20;;;;;;;;;;5018927;28;20121;-61
2023/12/30 04:26:37;;;;;;;0.10;0.10;;;;;;;;;;5033218;28;20033;-62
2023/12/30 04:29:03;;;;;;;0.85;0.22;;;;;;;;;;5029071;28;20504;-62
2023/12/30 04:31:29;;;;;;;0.10;0.10;;;;;;;;;;5032164;28;20131;-62
2023/12/30 04:33:55;;;;;;;0.00;0.00;;;;;;;;;;5025298;28;20044;-62
2023/12/30 04:36:21;;;;;;;0.00;0.00;;;;;;;;;;5025301;28;20572;-63
2023/12/30 04:38:47;;;;;;;0.08;0.08;;;;;;;;;;5023610;28;20059;-64
2023/12/30 04:41:13;;;;;;;0.25;0.20;;;;;;;;;;5030165;28;20040;-64
2023/12/30 04:43:39;;;;;;;1.10;0.20;;;;;;;;;;5031595;28;20449;-63
2023/12/30 04:46:05;;;;;;;0.00;0.00;;;;;;;;;;5024170;28;20281;-63
2023/12/30 04:48:32;;;;;;;0.10;0.10;;;;;;;;;;5023071;28;20041;-64
2023/12/30 04:50:58;;;;;;;0.00;0.00;;;;;;;;;;5025564;28;20049;-64
2023/12/30 04:53:25;;;;;;;4.68;1.88;;;;;;;;;;5021369;28;20041;-63
2023/12/30 04:55:51;;;;;;;0.00;0.00;;;;;;;;;;5033545;28;20044;-64
2023/12/30 04:58:17;;;;;;;0.00;0.00;;;;;;;;;;5026472;28;20033;-64
2023/12/30 05:00:43;;;;;;;2.15;0.70;;;;;;;;;;5019955;28;20963;-64
2023/12/30 05:03:09;;;;;;;0.70;0.65;;;;;;;;;;5025540;28;20393;-64
2023/12/30 05:05:35;;;;;;;0.38;0.38;;;;;;;;;;5028958;28;20036;-63
2023/12/30 05:08:02;;;;;;;0.00;0.00;;;;;;;;;;5030174;28;20464;-62
2023/12/30 05:10:28;;;;;;;0.00;0.00;;;;;;;;;;5033324;28;20480;-62
2023/12/30 05:12:54;;;;;;;0.25;0.25;;;;;;;;;;5026902;28;20033;-62
2023/12/30 05:15:20;;;;;;;0.00;0.00;;;;;;;;;;5027386;28;20440;-61
2023/12/30 05:17:46;;;;;;;0.00;0.00;;;;;;;;;;5025700;28;20549;-62
2023/12/30 05:20:12;;;;;;;0.00;0.00;;;;;;;;;;5027504;28;20039;-62
2023/12/30 05:22:40;;;;;;;0.00;0.00;;;;;;;;;;5031255;28;20469;-62
2023/12/30 05:25:06;;;;;;;0.00;0.00;;;;;;;;;;5030123;28;20076;-62
2023/12/30 05:27:32;;;;;;;1.55;0.32;;;;;;;;;;5026942;28;20042;-64
2023/12/30 05:29:58;;;;;;;0.00;0.00;;;;;;;;;;5025871;28;20586;-64
2023/12/30 05:32:24;;;;;;;0.00;0.00;;;;;;;;;;5021668;28;20177;-64
2023/12/30 05:34:50;;;;;;;0.00;0.00;;;;;;;;;;5025424;28;21298;-64
2023/12/30 05:37:16;;;;;;;0.00;0.00;;;;;;;;;;5021938;28;20041;-64
2023/12/30 05:39:42;;;;;;;0.00;0.00;;;;;;;;;;5025587;28;20090;-64
2023/12/30 05:42:08;;;;;;;0.00;0.00;;;;;;;;;;5033433;28;20026;-64
2023/12/30 05:44:34;;;;;;;0.25;0.15;;;;;;;;;;5032583;28;20546;-64
2023/12/30 05:47:00;;;;;;;0.00;0.00;;;;;;;;;;5019392;28;20030;-62
2023/12/30 05:49:26;;;;;;;0.00;0.00;;;;;;;;;;5028428;28;20079;-62
2023/12/30 05:51:52;;;;;;;0.10;0.05;;;;;;;;;;5025615;28;20036;-61
2023/12/30 05:54:18;;;;;;;0.00;0.00;;;;;;;;;;5026226;28;20148;-61
2023/12/30 05:56:44;;;;;;;0.00;0.00;;;;;;;;;;5031423;28;20055;-62
2023/12/30 05:59:10;;;;;;;11.98;1.08;;;;;;;;;;5028015;28;20040;-61
2023/12/30 06:01:43;;;;;;;0.00;0.00;;;;;;;;;;5026628;28;20068;-62
2023/12/30 06:04:09;;;;;;;0.17;0.17;;;;;;;;;;5027363;28;20038;-61
2023/12/30 06:06:36;;;;;;;0.43;0.43;;;;;;;;;;5023523;28;20041;-61
2023/12/30 06:09:02;;;;;;;0.55;0.20;;;;;;;;;;5035521;28;20049;-61
2023/12/30 06:11:28;;;;;;;0.00;0.00;;;;;;;;;;5020073;28;20146;-61
2023/12/30 06:13:54;;;;;;;0.22;0.17;;;;;;;;;;5035385;28;20514;-62
2023/12/30 06:16:20;;;;;;;0.00;0.00;;;;;;;;;;5030191;28;20045;-62
2023/12/30 06:18:46;;;;;;;0.00;0.00;;;;;;;;;;5031720;28;20041;-61
2023/12/30 06:21:12;;;;;;;0.00;0.00;;;;;;;;;;5025822;28;20120;-61
2023/12/30 06:23:38;;;;;;;0.13;0.10;;;;;;;;;;5029929;28;20036;-61
2023/12/30 06:26:04;;;;;;;0.00;0.00;;;;;;;;;;5024001;28;20033;-64
2023/12/30 06:28:30;;;;;;;0.45;0.40;;;;;;;;;;5029345;28;20048;-64
2023/12/30 06:30:56;;;;;;;0.00;0.00;;;;;;;;;;5026841;28;20556;-64
2023/12/30 06:33:23;;;;;;;1.75;0.55;;;;;;;;;;5025410;28;20041;-64
2023/12/30 06:35:49;;;;;;;0.00;0.00;;;;;;;;;;5029047;28;20033;-61
2023/12/30 06:38:15;;;;;;;0.00;0.00;;;;;;;;;;5027707;28;20029;-62
2023/12/30 06:40:42;;;;;;;0.00;0.00;;;;;;;;;;5027325;28;20037;-61
2023/12/30 06:43:11;;;;;;;0.00;0.00;;;;;;;;;;5031818;28;20041;-61
2023/12/30 06:45:37;;;;;;;0.00;0.00;;;;;;;;;;5024248;28;20034;-62
2023/12/30 06:48:03;;;;;;;0.00;0.00;;;;;;;;;;5038910;28;20563;-61
2023/12/30 06:50:29;;;;;;;3.92;1.77;;;;;;;;;;5031266;28;20060;-61
2023/12/30 06:52:55;;;;;;;0.00;0.00;;;;;;;;;;5031101;28;20037;-62
2023/12/30 06:55:21;;;;;;;0.25;0.25;;;;;;;;;;5033686;28;20429;-62
2023/12/30 06:57:48;;;;;;;0.00;0.00;;;;;;;;;;5026655;28;20507;-62
2023/12/30 07:00:14;;;;;;;0.00;0.00;;;;;;;;;;5021230;28;20562;-61
2023/12/30 07:02:41;;;;;;;0.00;0.00;;;;;;;;;;5027077;28;20041;-61
2023/12/30 07:05:07;;;;;;;0.08;0.08;;;;;;;;;;5031027;28;20690;-61
2023/12/30 07:07:33;;;;;;;0.00;0.00;;;;;;;;;;5026547;28;20060;-62
2023/12/30 07:09:59;;;;;;;0.38;0.38;;;;;;;;;;5031064;28;20037;-61
2023/12/30 07:12:25;;;;;;;1.88;0.45;;;;;;;;;;5031531;28;20543;-62
2023/12/30 07:14:51;;;;;;;0.00;0.00;;;;;;;;;;5027863;28;20430;-61
2023/12/30 07:17:17;;;;;;;0.00;0.00;;;;;;;;;;5028517;28;20041;-61
2023/12/30 07:19:43;;;;;;;0.00;0.00;;;;;;;;;;5023943;28;20034;-62
2023/12/30 07:22:09;;;;;;;0.00;0.00;;;;;;;;;;5034055;28;20051;-61
2023/12/30 07:24:36;;;;;;;0.00;0.00;;;;;;;;;;5028916;28;20025;-61
2023/12/30 07:27:02;;;;;;;0.00;0.00;;;;;;;;;;5025454;28;20116;-61
2023/12/30 07:29:28;;;;;;;0.00;0.00;;;;;;;;;;5027238;28;20026;-61
2023/12/30 07:31:54;;;;;;;0.00;0.00;;;;;;;;;;5026727;28;20044;-61
2023/12/30 07:34:20;;;;;;;0.00;0.00;;;;;;;;;;5028375;28;20030;-61
2023/12/30 07:36:47;;;;;;;0.00;0.00;;;;;;;;;;5024904;28;20045;-64
2023/12/30 07:39:13;;;;;;;0.00;0.00;;;;;;;;;;5023133;28;20041;-64
2023/12/30 07:41:39;;;;;;;0.00;0.00;;;;;;;;;;5028552;28;20065;-64
2023/12/30 07:44:05;;;;;;;0.00;0.00;;;;;;;;;;5024961;28;20044;-64
2023/12/30 07:46:32;;;;;;;0.10;0.10;;;;;;;;;;5026533;28;20047;-61
2023/12/30 07:48:58;;;;;;;0.00;0.00;;;;;;;;;;5024668;28;20044;-61
2023/12/30 07:51:24;;;;;;;0.00;0.00;;;;;;;;;;5023073;28;20049;-61
2023/12/30 07:53:50;;;;;;;0.00;0.00;;;;;;;;;;5031490;28;20087;-61
2023/12/30 07:56:16;;;;;;;0.00;0.00;;;;;;;;;;5023635;28;20123;-62
2023/12/30 07:58:42;;;;;;;1.27;1.17;;;;;;;;;;5032240;28;20041;-62
2023/12/30 08:01:08;;;;;;;0.00;0.00;;;;;;;;;;5027635;28;20124;-62
2023/12/30 08:03:34;;;;;;;0.00;0.00;;;;;;;;;;5028622;28;20040;-61
2023/12/30 08:06:01;;;;;;;0.00;0.00;;;;;;;;;;5030647;28;20037;-62
2023/12/30 08:08:26;;;;;;;7.63;0.35;;;;;;;;;;5030157;28;20038;-61
2023/12/30 08:10:52;;;;;;;0.03;0.03;;;;;;;;;;5029590;28;20033;-62
2023/12/30 08:13:19;;;;;;;0.00;0.00;;;;;;;;;;5027306;28;20029;-62
2023/12/30 08:15:45;;;;;;;0.05;0.05;;;;;;;;;;5027305;28;20381;-62
2023/12/30 08:18:11;;;;;;;0.00;0.00;;;;;;;;;;5027828;28;20047;-61
2023/12/30 08:20:37;;;;;;;0.00;0.00;;;;;;;;;;5033667;28;20314;-61
2023/12/30 08:23:03;;;;;;;0.00;0.00;;;;;;;;;;5022107;28;20115;-62
2023/12/30 08:25:29;;;;;;;0.00;0.00;;;;;;;;;;5037464;28;20036;-61
2023/12/30 08:27:55;;;;;;;0.00;0.00;;;;;;;;;;5027853;28;20078;-62
2023/12/30 08:30:21;;;;;;;0.00;0.00;;;;;;;;;;5028489;28;20536;-62
2023/12/30 08:32:47;;;;;;;0.00;0.00;;;;;;;;;;5025319;28;20064;-61
2023/12/30 08:35:13;;;;;;;0.00;0.00;;;;;;;;;;5029065;28;20029;-62
2023/12/30 08:37:39;;;;;;;0.00;0.00;;;;;;;;;;5030738;28;20119;-62
2023/12/30 08:40:07;;;;;;;5.97;1.73;;;;;;;;;;5031405;28;20145;-61
2023/12/30 08:42:35;;;;;;;0.65;0.28;;;;;;;;;;5032709;28;20036;-62
2023/12/30 08:45:02;;;;;;;0.00;0.00;;;;;;;;;;5029878;28;20072;-61
2023/12/30 08:47:31;;;;;;;0.17;0.17;;;;;;;;;;5021724;28;20322;-64
2023/12/30 08:49:57;;;;;;;0.00;0.00;;;;;;;;;;5033232;28;20131;-64
2023/12/30 08:52:23;;;;;;;0.00;0.00;;;;;;;;;;5022089;28;20060;-64
2023/12/30 08:54:49;;;;;;;2.10;0.40;;;;;;;;;;5026474;28;20037;-64
2023/12/30 08:57:16;;;;;;;0.15;0.15;;;;;;;;;;5062582;28;20467;-63
2023/12/30 08:59:42;;;;;;;2.38;0.52;;;;;;;;;;5036047;28;20125;-61
2023/12/30 09:02:08;;;;;;;0.00;0.00;;;;;;;;;;5027901;28;20409;-62
2023/12/30 09:04:34;;;;;;;0.00;0.00;;;;;;;;;;5028428;28;20026;-62
2023/12/30 09:07:00;;;;;;;0.00;0.00;;;;;;;;;;5027882;28;20136;-63
2023/12/30 09:09:26;;;;;;;0.00;0.00;;;;;;;;;;5028098;28;20551;-62
2023/12/30 09:11:52;;;;;;;2.85;1.08;;;;;;;;;;5029578;28;20043;-62
2023/12/30 09:14:19;;;;;;;2.80;0.28;;;;;;;;;;5026547;28;20111;-63
2023/12/30 09:16:45;;;;;;;0.00;0.00;;;;;;;;;;5027198;28;20056;-64
2023/12/30 09:19:11;;;;;;;1.20;0.68;;;;;;;;;;5029427;28;20419;-64
2023/12/30 09:21:37;;;;;;;0.55;0.55;;;;;;;;;;5022604;28;20044;-64
2023/12/30 09:24:03;;;;;;;0.60;0.60;;;;;;;;;;5024928;28;20642;-64
2023/12/30 09:26:29;;;;;;;1.45;0.98;;;;;;;;;;5021649;28;20064;-64
2023/12/30 09:28:55;;;;;;;0.20;0.20;;;;;;;;;;5019177;28;20037;-64
2023/12/30 09:31:24;;;;;;;0.00;0.00;;;;;;;;;;5024603;28;20195;-64
2023/12/30 09:33:50;;;;;;;0.38;0.10;;;;;;;;;;5023481;28;20508;-64
2023/12/30 09:36:17;;;;;;;6.90;1.85;;;;;;;;;;5018028;28;20520;-64
2023/12/30 09:38:43;;;;;;;5.72;0.35;;;;;;;;;;5046959;22;20062;-71
2023/12/30 09:41:10;;;;;;;0.90;0.30;;;;;;;;;;5075838;28;20036;-69
2023/12/30 09:43:36;;;;;;;0.00;0.00;;;;;;;;;;5076545;28;20032;-70
2023/12/30 09:48:40;;;;;;;0.13;0.10;;;;;;;;;;5354238;22;20550;-62
2023/12/30 09:51:06;;;;;;;0.10;0.10;;;;;;;;;;5036454;28;20182;-62
2023/12/30 09:53:32;;;;;;;0.10;0.10;;;;;;;;;;5037028;28;20424;-61
2023/12/30 09:55:58;;;;;;;0.00;0.00;;;;;;;;;;5037902;28;20506;-62
2023/12/30 09:58:24;;;;;;;0.20;0.20;;;;;;;;;;5037899;28;20404;-62
2023/12/30 10:00:50;;;;;;;0.00;0.00;;;;;;;;;;5039484;28;20048;-62
2023/12/30 10:03:18;;;;;;;0.70;0.43;;;;;;;;;;5039602;28;20128;-62
2023/12/30 10:05:44;;;;;;;0.65;0.63;;;;;;;;;;5040090;28;20037;-61
2023/12/30 10:08:10;;;;;;;0.35;0.20;;;;;;;;;;5039901;28;20044;-62
2023/12/30 10:10:43;;;;;;;0.00;0.00;;;;;;;;;;5036675;28;20075;-61
2023/12/30 10:13:09;;;;;;;0.55;0.52;;;;;;;;;;5040264;28;20025;-61
2023/12/30 10:15:35;;;;;;;0.00;0.00;;;;;;;;;;5042808;28;20095;-61
2023/12/30 10:18:04;;;;;;;0.57;0.57;;;;;;;;;;5043988;28;20064;-62
2023/12/30 10:20:30;;;;;;;0.00;0.00;;;;;;;;;;5035081;28;20029;-61
2023/12/30 10:22:56;;;;;;;0.00;0.00;;;;;;;;;;5034252;28;20052;-61
2023/12/30 10:25:22;;;;;;;0.00;0.00;;;;;;;;;;5038554;28;20377;-61
2023/12/30 10:27:49;;;;;;;0.20;0.20;;;;;;;;;;5039693;28;20036;-61
2023/12/30 10:30:21;;;;;;;0.38;0.20;;;;;;;;;;5038545;28;20044;-61
2023/12/30 10:32:47;;;;;;;1.05;0.98;;;;;;;;;;5041877;28;20056;-62
2023/12/30 10:35:13;;;;;;;0.00;0.00;;;;;;;;;;5039772;28;20102;-62
2023/12/30 10:37:42;;;;;;;0.00;0.00;;;;;;;;;;5042870;28;20419;-61
2023/12/30 10:40:12;;;;;;;0.00;0.00;;;;;;;;;;5038735;28;20029;-62
2023/12/30 10:42:40;;;;;;;0.52;0.52;;;;;;;;;;5042432;28;20112;-61
2023/12/30 10:45:07;;;;;;;0.00;0.00;;;;;;;;;;5046446;28;20304;-61
2023/12/30 10:47:38;;;;;;;0.00;0.00;;;;;;;;;;5043153;28;20036;-62
2023/12/30 10:50:06;;;;;;;0.13;0.13;;;;;;;;;;5040933;28;20456;-61
2023/12/30 10:52:33;;;;;;;0.00;0.00;;;;;;;;;;5042405;28;20033;-61
2023/12/30 10:55:08;;;;;;;0.40;0.25;;;;;;;;;;5041339;28;20353;-61
2023/12/30 10:57:36;;;;;;;0.25;0.20;;;;;;;;;;5037323;28;20119;-61
2023/12/30 11:00:08;;;;;;;0.00;0.00;;;;;;;;;;5042481;28;20029;-61
2023/12/30 11:02:35;;;;;;;0.00;0.00;;;;;;;;;;5041789;28;20033;-61
2023/12/30 11:05:02;;;;;;;0.05;0.05;;;;;;;;;;5041099;28;20037;-62
2023/12/30 11:07:28;;;;;;;0.10;0.10;;;;;;;;;;5023675;28;20520;-61
2023/12/30 11:09:54;;;;;;;0.10;0.10;;;;;;;;;;5050551;28;20029;-62
2023/12/30 11:12:20;;;;;;;0.00;0.00;;;;;;;;;;5042238;28;20276;-62
2023/12/30 11:14:48;;;;;;;4.75;2.00;;;;;;;;;;5042073;28;20124;-62
2023/12/30 11:17:33;;;;;;;0.20;0.20;;;;;;;;;;5038721;28;20036;-61
2023/12/30 11:20:19;;;;;;;1.20;0.90;;;;;;;;;;5041747;28;20120;-61
2023/12/30 11:22:46;;;;;;;0.00;0.00;;;;;;;;;;5041718;28;20045;-63
2023/12/30 11:25:14;;;;;;;0.00;0.00;;;;;;;;;;5041797;28;20075;-62
2023/12/30 11:27:40;;;;;;;0.08;0.08;;;;;;;;;;5041286;28;20164;-61
2023/12/30 11:30:06;;;;;;;0.30;0.25;;;;;;;;;;5027218;28;20156;-62
2023/12/30 11:32:32;;;;;;;0.10;0.10;;;;;;;;;;5024122;28;20090;-62
2023/12/30 11:34:59;;;;;;;0.47;0.20;;;;;;;;;;5038621;28;20736;-62
2023/12/30 11:37:26;;;;;;;0.03;0.03;;;;;;;;;;5038033;28;20124;-63
2023/12/30 11:39:54;;;;;;;0.10;0.10;;;;;;;;;;5037546;28;20487;-63
2023/12/30 11:42:20;;;;;;;6.45;0.60;;;;;;;;;;5040700;28;20138;-62
2023/12/30 11:44:46;;;;;;;2.30;0.40;;;;;;;;;;5040560;28;20032;-62
2023/12/30 11:47:21;;;;;;;0.00;0.00;;;;;;;;;;5041012;28;22060;-61
2023/12/30 11:49:47;;;;;;;1.02;1.00;;;;;;;;;;5039264;28;20273;-62
2023/12/30 11:52:13;;;;;;;0.00;0.00;;;;;;;;;;5039194;28;20029;-64
2023/12/30 11:54:39;;;;;;;0.00;0.00;;;;;;;;;;5039401;28;20033;-64
2023/12/30 11:57:09;;;;;;;0.00;0.00;;;;;;;;;;5039476;28;20041;-62
2023/12/30 11:59:35;;;;;;;0.00;0.00;;;;;;;;;;5041264;28;20025;-62
2023/12/30 12:02:08;;;;;;;0.77;0.77;;;;;;;;;;5036029;28;20539;-65
2023/12/30 12:04:35;;;;;;;0.00;0.00;;;;;;;;;;5038977;28;20037;-65
2023/12/30 12:07:01;;;;;;;0.00;0.00;;;;;;;;;;5039314;28;20037;-65
2023/12/30 12:09:27;;;;;;;0.00;0.00;;;;;;;;;;5040624;28;20090;-65
2023/12/30 12:11:53;;;;;;;0.55;0.25;;;;;;;;;;5039683;28;20041;-65
2023/12/30 12:14:19;;;;;;;0.30;0.30;;;;;;;;;;5019218;28;20037;-65
2023/12/30 12:16:45;;;;;;;4.28;0.85;;;;;;;;;;5043750;28;20033;-64
2023/12/30 12:19:11;;;;;;;0.03;0.03;;;;;;;;;;5022607;28;20040;-65
2023/12/30 12:21:37;;;;;;;0.00;0.00;;;;;;;;;;5046491;28;20375;-65
2023/12/30 12:24:03;;;;;;;0.40;0.40;;;;;;;;;;5041324;28;20110;-65
2023/12/30 12:26:31;;;;;;;2.75;0.63;;;;;;;;;;5036408;28;20540;-64
2023/12/30 12:28:58;;;;;;;2.50;0.45;;;;;;;;;;5035768;28;20518;-65
2023/12/30 12:31:29;;;;;;;0.10;0.10;;;;;;;;;;5042649;28;20041;-65
2023/12/30 12:33:55;;;;;;;0.00;0.00;;;;;;;;;;5038562;28;20451;-65
2023/12/30 12:36:21;;;;;;;0.00;0.00;;;;;;;;;;5037668;28;20033;-65
2023/12/30 12:38:47;;;;;;;0.40;0.30;;;;;;;;;;5041214;28;20037;-65
2023/12/30 12:41:13;;;;;;;0.00;0.00;;;;;;;;;;5038313;28;20029;-69
2023/12/30 12:43:39;;;;;;;0.20;0.20;;;;;;;;;;5038495;28;20630;-65
2023/12/30 12:46:05;;;;;;;0.20;0.20;;;;;;;;;;5035753;28;20040;-65
2023/12/30 12:48:31;;;;;;;0.52;0.20;;;;;;;;;;5032491;28;20048;-66
2023/12/30 12:50:57;;;;;;;0.68;0.30;;;;;;;;;;5038792;28;20403;-65
2023/12/30 12:53:23;;;;;;;0.00;0.00;;;;;;;;;;5035622;28;20036;-66
2023/12/30 12:55:49;;;;;;;0.00;0.00;;;;;;;;;;5037855;28;20128;-65
2023/12/30 12:58:15;;;;;;;3.08;1.65;;;;;;;;;;5039150;28;20060;-65
2023/12/30 13:00:42;;;;;;;0.15;0.15;;;;;;;;;;5023389;28;20064;-65
2023/12/30 13:03:08;;;;;;;8.60;1.38;;;;;;;;;;5037197;28;20468;-67
2023/12/30 13:05:34;;;;;;;3.53;0.47;;;;;;;;;;5037316;28;20507;-65
2023/12/30 13:07:59;;;;;;;0.25;0.25;;;;;;;;;;5036575;28;20064;-65
2023/12/30 13:12:57;;;;;;;0.93;0.35;;;;;;;;;;5040107;28;20494;-65
2023/12/30 13:15:24;;;;;;;1.55;0.35;;;;;;;;;;5037395;28;20059;-65
2023/12/30 13:17:51;;;;;;;0.00;0.00;;;;;;;;;;5036157;28;20140;-65
2023/12/30 13:20:17;;;;;;;0.20;0.20;;;;;;;;;;5018360;28;20045;-65
2023/12/30 13:22:43;;;;;;;34.22;5.28;;;;;;;;;;5038435;28;20102;-65
2023/12/30 13:25:10;;;;;;;0.00;0.00;;;;;;;;;;5030848;28;20127;-65
2023/12/30 13:27:36;;;;;;;0.10;0.08;;;;;;;;;;5035355;28;20033;-65
2023/12/30 13:30:03;;;;;;;0.00;0.00;;;;;;;;;;5037253;28;20159;-66
2023/12/30 13:32:29;;;;;;;0.00;0.00;;;;;;;;;;5037425;28;20040;-66
2023/12/30 13:34:56;;;;;;;0.25;0.25;;;;;;;;;;5038232;28;20033;-66
2023/12/30 13:37:24;;;;;;;0.00;0.00;;;;;;;;;;5039166;28;20977;-65
2023/12/30 13:39:51;;;;;;;0.13;0.13;;;;;;;;;;5030448;28;20021;-65
2023/12/30 13:42:19;;;;;;;0.15;0.15;;;;;;;;;;5030429;28;20085;-65
2023/12/30 13:44:46;;;;;;;11.60;0.95;;;;;;;;;;5038168;28;20029;-66
2023/12/30 13:50:12;;;;;;;0.00;0.00;;;;;;;;;;5027639;28;20031;-66
2023/12/30 13:52:38;;;;;;;0.00;0.00;;;;;;;;;;5039910;28;20037;-66
2023/12/30 13:55:15;;;;;;;0.00;0.00;;;;;;;;;;5038045;28;20044;-65
2023/12/30 13:57:42;;;;;;;0.10;0.10;;;;;;;;;;5039856;28;20036;-65
2023/12/30 14:00:08;;;;;;;0.22;0.22;;;;;;;;;;5043059;28;20037;-65
2023/12/30 14:02:38;;;;;;;0.10;0.10;;;;;;;;;;5019180;28;20317;-65
2023/12/30 14:05:17;;;;;;;1.33;0.52;;;;;;;;;;5036309;28;20494;-66
2023/12/30 14:07:43;;;;;;;0.93;0.17;;;;;;;;;;5035471;28;20455;-66
2023/12/30 14:10:11;;;;;;;0.00;0.00;;;;;;;;;;5038304;28;20021;-66
2023/12/30 14:12:39;;;;;;;0.00;0.00;;;;;;;;;;5040208;28;20190;-66
2023/12/30 14:15:09;;;;;;;0.03;0.03;;;;;;;;;;5037714;28;20048;-65
2023/12/30 14:17:36;;;;;;;0.10;0.10;;;;;;;;;;5040434;28;20043;-65
2023/12/30 14:20:04;;;;;;;2.60;0.55;;;;;;;;;;5039859;28;20044;-66
2023/12/30 14:22:33;;;;;;;0.00;0.00;;;;;;;;;;5022081;28;20080;-62
2023/12/30 14:25:00;;;;;;;0.00;0.00;;;;;;;;;;5042465;28;20033;-63
2023/12/30 14:27:26;;;;;;;2.42;0.30;;;;;;;;;;5042572;28;20029;-62
2023/12/30 14:29:54;;;;;;;0.00;0.00;;;;;;;;;;5042444;28;20037;-63
2023/12/30 14:32:20;;;;;;;0.17;0.17;;;;;;;;;;5042844;28;20029;-62
2023/12/30 14:34:46;;;;;;;0.70;0.43;;;;;;;;;;5041023;28;20055;-62
2023/12/30 14:37:12;;;;;;;0.10;0.10;;;;;;;;;;5041584;28;20068;-62
2023/12/30 14:39:39;;;;;;;0.15;0.15;;;;;;;;;;5024720;28;20040;-62
2023/12/30 14:42:05;;;;;;;0.40;0.20;;;;;;;;;;5041886;28;20040;-63
2023/12/30 14:44:31;;;;;;;0.00;0.00;;;;;;;;;;5041502;28;20042;-64
2023/12/30 14:46:57;;;;;;;1.42;0.45;;;;;;;;;;5043503;28;20033;-62